• Join FlightAware (Why Join?)
  • Login
  • US Flag 
07:00PM EDT


 

Airport Tracker/Info


-or-


 

Live Flight TrackerFlight Track Log ✈ AAY846 ✈ 08-May-2013 ✈ KPIE - KPIA

Flight Track Log - Related Links

Times and Time Zones

All times are in EDT time to prevent confusion due to time zone crossing. See the AAY846 flight status page for this flight to view local times or setup timezone preferences in your user account.

Time Position Orientation Groundspeed Altitude Reporting Facility
EDT Latitude Longitude Course Direction KTS MPH feet Rate Location/Type
02:34PM 27.9333 -82.7000 30° Northeast 179 206 900  Level Tampa TRACON
02:35PM 27.9833 -82.6667 30° Northeast 216 249 3,100 2,160 Climbing Tampa TRACON
02:37PM 28.1311 -82.7208 342° North 234 269 8,300 2,160 Climbing Jacksonville Center
02:38PM 28.2083 -82.7489 342° North 265 305 10,600 1,800 Climbing Jacksonville Center
02:39PM 28.2917 -82.7817 341° North 295 339 11,900 1,620 Climbing Jacksonville Center
02:40PM 28.3900 -82.8264 338° Northwest 339 390 13,900 2,100 Climbing Jacksonville Center
02:41PM 28.4881 -82.8714 338° Northwest 368 423 16,200 2,100 Climbing Jacksonville Center
02:42PM 28.5903 -82.9186 338° Northwest 385 443 18,100 1,860 Climbing Jacksonville Center
02:43PM 28.6967 -82.9589 342° North 397 457 20,000 1,800 Climbing Jacksonville Center
02:44PM 28.8053 -83.0064 339° North 402 463 21,700 1,500 Climbing Jacksonville Center
02:45PM 28.9200 -83.0539 340° North 415 478 23,000 1,380 Climbing Jacksonville Center
02:46PM 29.0347 -83.1017 340° North 426 490 24,500 1,740 Climbing Jacksonville Center
02:47PM 29.1514 -83.1517 339° North 433 498 26,500 1,680 Climbing Jacksonville Center
02:48PM 29.2642 -83.1950 341° North 433 498 27,900 1,380 Climbing Jacksonville Center
02:49PM 29.3767 -83.2500 337° Northwest 433 498 29,300 1,200 Climbing Jacksonville Center
02:50PM 29.4975 -83.3125 336° Northwest 433 498 30,400 1,200 Climbing Jacksonville Center
02:51PM 29.6081 -83.3681 336° Northwest 433 498 31,700 780 Climbing Jacksonville Center
02:52PM 29.7164 -83.4186 338° Northwest 433 498 32,000 120 Climbing Jacksonville Center
02:53PM 29.8247 -83.4719 337° Northwest 428 493 32,000  Level Jacksonville Center
02:54PM 29.9289 -83.5228 337° Northwest 415 478 32,000  Level Jacksonville Center
02:55PM 30.0350 -83.5764 336° Northwest 415 478 32,000  Level Jacksonville Center
02:56PM 30.1411 -83.6300 336° Northwest 415 478 32,000  Level Jacksonville Center
02:57PM 30.2433 -83.6811 337° Northwest 415 478 32,000  Level Jacksonville Center
02:58PM 30.3494 -83.7328 337° Northwest 410 472 32,000  Level Jacksonville Center
02:59PM 30.4575 -83.7892 336° Northwest 410 472 32,000  Level Jacksonville Center
03:00PM 30.5428 -83.8308 337° Northwest 410 472 32,000  Level Jacksonville Center
03:01PM 30.6614 -83.8900 337° Northwest 417 480 32,000  Level Jacksonville Center
03:02PM 30.7694 -83.9467 336° Northwest 417 480 32,000  Level Jacksonville Center
03:03PM 30.8756 -84.0011 336° Northwest 417 480 32,000  Level Jacksonville Center
03:04PM 30.9836 -84.0581 336° Northwest 417 480 32,000  Level Jacksonville Center
03:05PM 31.0917 -84.1128 337° Northwest 417 480 32,000  Level Jacksonville Center
03:06PM 31.1975 -84.1678 336° Northwest 417 480 32,000  Level Jacksonville Center
03:07PM 31.3036 -84.2225 336° Northwest 417 480 32,000  Level Jacksonville Center
03:08PM 31.4114 -84.2778 336° Northwest 417 480 32,000  Level Jacksonville Center
03:09PM 31.5175 -84.3306 337° Northwest 417 480 32,000  Level Jacksonville Center
03:12PM 31.7750 -84.4664 336° Northwest 416 479 32,000  Level Atlanta Center
03:13PM 31.8689 -84.5158 336° Northwest 416 479 32,000  Level Atlanta Center
03:14PM 31.9750 -84.5703 336° Northwest 416 479 32,000  Level Atlanta Center
03:15PM 32.0811 -84.6272 336° Northwest 416 479 32,000  Level Atlanta Center
03:16PM 32.1833 -84.6794 337° Northwest 416 479 32,000  Level Atlanta Center
03:17PM 32.2872 -84.7342 336° Northwest 411 473 32,000  Level Atlanta Center
03:18PM 32.3933 -84.7917 335° Northwest 411 473 32,000  Level Atlanta Center
03:19PM 32.5058 -84.8467 338° Northwest 411 473 32,000  Level Atlanta Center
03:20PM 32.6097 -84.8994 337° Northwest 403 464 32,000  Level Atlanta Center
03:21PM 32.7117 -84.9522 336° Northwest 398 458 32,000  Level Atlanta Center
03:22PM 32.8053 -85.0100 333° Northwest 403 464 32,000  Level Atlanta Center
03:23PM 32.9175 -85.0731 335° Northwest 403 464 32,000  Level Atlanta Center
03:24PM 33.0192 -85.1239 337° Northwest 402 463 32,000  Level Atlanta Center
03:25PM 33.1211 -85.1797 335° Northwest 402 463 32,000  Level Atlanta Center
03:26PM 33.2228 -85.2358 335° Northwest 402 463 32,000  Level Atlanta Center
03:27PM 33.3267 -85.2919 336° Northwest 396 456 32,000  Level Atlanta Center
03:28PM 33.4303 -85.3481 336° Northwest 402 463 32,000  Level Atlanta Center
03:29PM 33.5300 -85.4019 336° Northwest 397 457 32,000  Level Atlanta Center
03:30PM 33.6233 -85.4508 336° Northwest 397 457 32,000  Level Atlanta Center
03:31PM 33.7269 -85.5075 336° Northwest 402 463 32,000  Level Atlanta Center
03:32PM 33.8286 -85.5617 336° Northwest 397 457 32,000  Level Atlanta Center
03:33PM 33.9322 -85.6211 335° Northwest 402 463 32,000  Level Atlanta Center
03:34PM 34.0339 -85.6756 336° Northwest 397 457 32,000  Level Atlanta Center
03:35PM 34.1478 -85.7381 336° Northwest 397 457 32,000  Level Atlanta Center
03:36PM 34.2492 -85.7956 335° Northwest 397 457 32,000  Level Atlanta Center
03:37PM 34.3486 -85.8453 338° Northwest 397 457 32,000  Level Atlanta Center
03:38PM 34.4522 -85.9003 336° Northwest 397 457 32,000  Level Atlanta Center
03:39PM 34.5536 -85.9606 334° Northwest 403 464 32,000  Level Atlanta Center
03:40PM 34.6569 -86.0161 336° Northwest 403 464 32,000  Level Atlanta Center
03:41PM 34.7583 -86.0717 336° Northwest 397 457 32,000  Level Atlanta Center
03:42PM 34.8597 -86.1297 335° Northwest 397 457 32,000  Level Atlanta Center
03:43PM 34.9650 -86.1906 335° Northwest 397 457 32,000  Level Atlanta Center
03:44PM 35.0642 -86.2464 335° Northwest 397 457 32,000  Level Atlanta Center
03:45PM 35.1653 -86.3050 335° Northwest 397 457 32,000  Level Atlanta Center
03:46PM 35.2961 -86.3808 335° Northwest 423 487 32,000  Level Memphis Center
03:47PM 35.4067 -86.4469 334° Northwest 413 475 32,000  Level Memphis Center
03:48PM 35.5086 -86.5033 336° Northwest 407 468 32,000  Level Memphis Center
03:49PM 35.6125 -86.5622 335° Northwest 407 468 32,000  Level Memphis Center
03:50PM 35.7144 -86.6217 335° Northwest 407 468 32,000  Level Memphis Center
03:51PM 35.8142 -86.6783 335° Northwest 407 468 32,000  Level Memphis Center
03:52PM 35.9139 -86.7381 334° Northwest 407 468 32,000  Level Memphis Center
03:53PM 36.0156 -86.7953 336° Northwest 402 463 32,000  Level Memphis Center
03:54PM 36.1133 -86.8550 334° Northwest 397 457 32,000  Level Memphis Center
03:55PM 36.2022 -86.9078 334° Northwest 390 449 32,000  Level Memphis Center
03:56PM 36.3061 -86.9678 335° Northwest 402 463 32,000  Level Memphis Center
03:57PM 36.4183 -87.0328 335° Northwest 407 468 32,000  Level Memphis Center
03:58PM 36.5178 -87.0906 335° Northwest 402 463 32,000  Level Memphis Center
03:59PM 36.6194 -87.1486 335° Northwest 394 453 32,000  Level Memphis Center
04:00PM 36.7167 -87.2069 334° Northwest 384 442 32,000  Level Memphis Center
04:01PM 36.8161 -87.2650 335° Northwest 395 455 32,000  Level Memphis Center
04:02PM 36.9178 -87.3261 334° Northwest 390 449 32,000  Level Memphis Center
04:04PM 37.1006 -87.4336 335° Northwest 396 456 32,000  Level Indianapolis Center
04:05PM 37.1997 -87.4925 335° Northwest 392 451 32,000  Level Indianapolis Center
04:06PM 37.2992 -87.5519 335° Northwest 392 451 32,000  Level Indianapolis Center
04:07PM 37.3986 -87.6122 334° Northwest 392 451 32,000  Level Indianapolis Center
04:08PM 37.4989 -87.6703 335° Northwest 391 450 32,000  Level Indianapolis Center
04:09PM 37.5975 -87.7344 333° Northwest 395 455 32,000  Level Indianapolis Center
04:10PM 37.7142 -87.8053 334° Northwest 395 455 32,000  Level Indianapolis Center
04:12PM 37.8517 -87.8894 334° Northwest 394 453 32,000  Level Kansas City Center
04:12PM 37.9119 -87.9267 334° Northwest 395 455 32,000  Level Indianapolis Center
04:13PM 37.9708 -87.9622 335° Northwest 394 453 32,000  Level Kansas City Center
04:14PM 38.0714 -88.0250 334° Northwest 397 457 32,000  Level Kansas City Center
04:15PM 38.1703 -88.0867 334° Northwest 394 453 32,000  Level Kansas City Center
04:15PM 38.2092 -88.1106 334° Northwest 396 456 32,000  Level Indianapolis Center
04:16PM 38.2689 -88.1472 334° Northwest 392 451 32,000  Level Kansas City Center
04:17PM 38.4061 -88.2325 334° Northwest 391 450 32,000  Level Indianapolis Center
04:18PM 38.4661 -88.2700 334° Northwest 391 450 32,000  Level Kansas City Center
04:19PM 38.5650 -88.3325 334° Northwest 393 452 32,000  Level Kansas City Center
04:20PM 38.6858 -88.4081 334° Northwest 396 456 32,000  Level Kansas City Center
04:21PM 38.7856 -88.4711 334° Northwest 397 457 32,000  Level Kansas City Center
04:22PM 38.8881 -88.5356 334° Northwest 402 463 32,000 -480 Level Kansas City Center
04:23PM 38.9897 -88.6000 334° Northwest 403 464 31,100 -1,260 Descending Kansas City Center
04:24PM 39.0889 -88.6636 334° Northwest 407 468 29,400 -1,740 Descending Kansas City Center
04:25PM 39.1953 -88.7303 334° Northwest 419 482 27,600 -1,800 Descending Kansas City Center
04:26PM 39.3000 -88.7975 334° Northwest 422 486 25,800 -1,980 Descending Kansas City Center
04:27PM 39.4231 -88.8758 334° Northwest 416 479 23,600 -1,980 Descending Kansas City Center
04:28PM 39.5261 -88.9428 333° Northwest 406 467 21,800 -1,800 Descending Kansas City Center
04:29PM 39.6250 -89.0069 333° Northwest 399 459 20,000 -1,800 Descending Kansas City Center
04:30PM 39.7236 -89.0711 333° Northwest 397 457 18,200 -1,740 Descending Kansas City Center
04:31PM 39.8200 -89.1350 333° Northwest 392 451 16,500 -1,740 Descending Kansas City Center
04:32PM 39.9144 -89.1956 334° Northwest 383 441 14,700 -1,800 Descending Kansas City Center
04:33PM 40.0067 -89.2569 333° Northwest 375 432 12,900 -1,800 Descending Kansas City Center
04:34PM 40.1114 -89.3247 334° Northwest 355 409 11,100 -1,080 Descending Kansas City Center
04:35PM 40.1619 -89.3581 333° Northwest 350 403 11,000 -600 Descending Chicago Center
04:36PM 40.2622 -89.4028 341° North 320 368 10,100 -1,140 Descending Chicago Center
04:37PM 40.3400 -89.4325 344° North 301 346 8,700 -1,380 Descending Chicago Center
04:38PM 40.4192 -89.4519 349° North 293 337 7,300 -1,440 Descending Chicago Center
04:39PM 40.4958 -89.4514 360° North 281 323 5,800 -1,500 Descending Chicago Center
04:40PM 40.5578 -89.4936 333° Northwest 268 308 4,200 -1,380 Descending Chicago Center
04:41PM 40.5881 -89.5642 299° West 240 276 3,000 -1,260 Descending Chicago Center
04:42PM 40.6275 -89.6317 308° West 211 243 1,600 -1,020 Descending Chicago Center
04:44PM 40.6508 -89.6736 306° West 169 194 900 -540 Descending Chicago Center
04:45PM 40.6728 -89.7108 308° West 158 182 600 -300 Descending Chicago Center